sensor_id;sensor_type;location;lat;lon;timestamp;temperature;humidity
5278;DHT22;2662;51.194;6.614;2023-04-24T00:01:38;12.50;99.90
5278;DHT22;2662;51.194;6.614;2023-04-24T00:04:05;12.50;99.90
5278;DHT22;2662;51.194;6.614;2023-04-24T00:06:36;12.40;99.90
5278;DHT22;2662;51.194;6.614;2023-04-24T00:09:05;12.30;99.90
5278;DHT22;2662;51.194;6.614;2023-04-24T00:11:32;12.20;99.90
5278;DHT22;2662;51.194;6.614;2023-04-24T00:13:58;12.00;99.90
5278;DHT22;2662;51.194;6.614;2023-04-24T00:16:25;11.90;99.90
5278;DHT22;2662;51.194;6.614;2023-04-24T00:18:52;11.80;99.90
5278;DHT22;2662;51.194;6.614;2023-04-24T00:21:21;11.80;99.90
5278;DHT22;2662;51.194;6.614;2023-04-24T00:23:51;11.60;99.90
5278;DHT22;2662;51.194;6.614;2023-04-24T00:26:19;11.60;99.90
5278;DHT22;2662;51.194;6.614;2023-04-24T00:28:45;11.50;99.90
5278;DHT22;2662;51.194;6.614;2023-04-24T00:31:12;11.50;99.90
5278;DHT22;2662;51.194;6.614;2023-04-24T00:33:39;11.50;99.90
5278;DHT22;2662;51.194;6.614;2023-04-24T00:36:06;11.50;99.90
5278;DHT22;2662;51.194;6.614;2023-04-24T00:38:33;11.50;99.90
5278;DHT22;2662;51.194;6.614;2023-04-24T00:40:59;11.60;99.90
5278;DHT22;2662;51.194;6.614;2023-04-24T00:43:27;11.60;99.90
5278;DHT22;2662;51.194;6.614;2023-04-24T00:45:54;11.70;99.90
5278;DHT22;2662;51.194;6.614;2023-04-24T00:48:21;11.70;99.90
5278;DHT22;2662;51.194;6.614;2023-04-24T00:50:48;11.70;99.90
5278;DHT22;2662;51.194;6.614;2023-04-24T00:53:14;11.70;99.90
5278;DHT22;2662;51.194;6.614;2023-04-24T00:55:41;11.70;99.90
5278;DHT22;2662;51.194;6.614;2023-04-24T00:58:08;11.70;99.90
5278;DHT22;2662;51.194;6.614;2023-04-24T01:00:36;11.70;99.90
5278;DHT22;2662;51.194;6.614;2023-04-24T01:03:04;11.60;99.90
5278;DHT22;2662;51.194;6.614;2023-04-24T01:05:32;11.60;99.90
5278;DHT22;2662;51.194;6.614;2023-04-24T01:07:59;11.60;99.90
5278;DHT22;2662;51.194;6.614;2023-04-24T01:10:29;11.50;99.90
5278;DHT22;2662;51.194;6.614;2023-04-24T01:12:58;11.40;99.90
5278;DHT22;2662;51.194;6.614;2023-04-24T01:15:25;11.30;99.90
5278;DHT22;2662;51.194;6.614;2023-04-24T01:17:53;11.10;99.90
5278;DHT22;2662;51.194;6.614;2023-04-24T01:20:20;11.00;99.90
5278;DHT22;2662;51.194;6.614;2023-04-24T01:22:48;10.80;99.90
5278;DHT22;2662;51.194;6.614;2023-04-24T01:25:15;10.70;99.90
5278;DHT22;2662;51.194;6.614;2023-04-24T01:27:42;10.60;99.90
5278;DHT22;2662;51.194;6.614;2023-04-24T01:30:09;10.60;99.90
5278;DHT22;2662;51.194;6.614;2023-04-24T01:32:37;10.50;99.90
5278;DHT22;2662;51.194;6.614;2023-04-24T01:35:05;10.50;99.90
5278;DHT22;2662;51.194;6.614;2023-04-24T01:37:32;10.50;99.90
5278;DHT22;2662;51.194;6.614;2023-04-24T01:40:00;10.50;99.90
5278;DHT22;2662;51.194;6.614;2023-04-24T01:42:28;10.60;99.90
5278;DHT22;2662;51.194;6.614;2023-04-24T01:44:56;10.70;99.90
5278;DHT22;2662;51.194;6.614;2023-04-24T01:47:23;10.70;99.90
5278;DHT22;2662;51.194;6.614;2023-04-24T01:49:50;10.80;99.90
5278;DHT22;2662;51.194;6.614;2023-04-24T01:52:18;10.80;99.90
5278;DHT22;2662;51.194;6.614;2023-04-24T01:54:45;10.90;99.90
5278;DHT22;2662;51.194;6.614;2023-04-24T01:57:13;10.90;99.90
5278;DHT22;2662;51.194;6.614;2023-04-24T01:59:40;10.90;99.90
5278;DHT22;2662;51.194;6.614;2023-04-24T02:02:07;10.90;99.90
5278;DHT22;2662;51.194;6.614;2023-04-24T02:04:34;10.90;99.90
5278;DHT22;2662;51.194;6.614;2023-04-24T02:07:00;10.90;99.90
5278;DHT22;2662;51.194;6.614;2023-04-24T02:09:27;10.90;99.90
5278;DHT22;2662;51.194;6.614;2023-04-24T02:11:54;11.00;99.90
5278;DHT22;2662;51.194;6.614;2023-04-24T02:14:23;10.90;99.90
5278;DHT22;2662;51.194;6.614;2023-04-24T02:16:49;10.90;99.90
5278;DHT22;2662;51.194;6.614;2023-04-24T02:19:16;10.80;99.90
5278;DHT22;2662;51.194;6.614;2023-04-24T02:21:43;10.90;99.90
5278;DHT22;2662;51.194;6.614;2023-04-24T02:24:10;10.90;99.90
5278;DHT22;2662;51.194;6.614;2023-04-24T02:26:36;10.90;99.90
5278;DHT22;2662;51.194;6.614;2023-04-24T02:29:03;10.90;99.90
5278;DHT22;2662;51.194;6.614;2023-04-24T02:31:31;11.00;99.90
5278;DHT22;2662;51.194;6.614;2023-04-24T02:33:58;11.00;99.90
5278;DHT22;2662;51.194;6.614;2023-04-24T02:36:25;10.90;99.90
5278;DHT22;2662;51.194;6.614;2023-04-24T02:38:51;10.90;99.90
5278;DHT22;2662;51.194;6.614;2023-04-24T02:41:18;11.00;99.90
5278;DHT22;2662;51.194;6.614;2023-04-24T02:43:45;11.00;99.90
5278;DHT22;2662;51.194;6.614;2023-04-24T02:46:12;11.00;99.90
5278;DHT22;2662;51.194;6.614;2023-04-24T02:48:40;11.00;99.90
5278;DHT22;2662;51.194;6.614;2023-04-24T02:51:06;11.00;99.90
5278;DHT22;2662;51.194;6.614;2023-04-24T02:53:33;11.10;99.90
5278;DHT22;2662;51.194;6.614;2023-04-24T02:56:00;11.20;99.90
5278;DHT22;2662;51.194;6.614;2023-04-24T02:58:27;11.10;99.90
5278;DHT22;2662;51.194;6.614;2023-04-24T03:00:54;11.10;99.90
5278;DHT22;2662;51.194;6.614;2023-04-24T03:03:21;11.20;99.90
5278;DHT22;2662;51.194;6.614;2023-04-24T03:05:50;11.10;99.90
5278;DHT22;2662;51.194;6.614;2023-04-24T03:08:17;11.10;99.90
5278;DHT22;2662;51.194;6.614;2023-04-24T03:10:44;11.20;99.90
5278;DHT22;2662;51.194;6.614;2023-04-24T03:13:10;11.20;99.90
5278;DHT22;2662;51.194;6.614;2023-04-24T03:15:37;11.20;99.90
5278;DHT22;2662;51.194;6.614;2023-04-24T03:18:04;11.20;99.90
5278;DHT22;2662;51.194;6.614;2023-04-24T03:20:30;11.30;99.90
5278;DHT22;2662;51.194;6.614;2023-04-24T03:22:58;11.30;99.90
5278;DHT22;2662;51.194;6.614;2023-04-24T03:25:26;11.30;99.90
5278;DHT22;2662;51.194;6.614;2023-04-24T03:27:52;11.40;99.90
5278;DHT22;2662;51.194;6.614;2023-04-24T03:30:20;11.30;99.90
5278;DHT22;2662;51.194;6.614;2023-04-24T03:32:46;11.40;99.90
5278;DHT22;2662;51.194;6.614;2023-04-24T03:35:13;11.40;99.90
5278;DHT22;2662;51.194;6.614;2023-04-24T03:37:40;11.50;99.90
5278;DHT22;2662;51.194;6.614;2023-04-24T03:40:09;11.40;99.90
5278;DHT22;2662;51.194;6.614;2023-04-24T03:42:36;11.40;99.90
5278;DHT22;2662;51.194;6.614;2023-04-24T03:45:03;11.30;99.90
5278;DHT22;2662;51.194;6.614;2023-04-24T03:47:30;11.30;99.90
5278;DHT22;2662;51.194;6.614;2023-04-24T03:49:56;11.30;99.90
5278;DHT22;2662;51.194;6.614;2023-04-24T03:52:23;11.20;99.90
5278;DHT22;2662;51.194;6.614;2023-04-24T03:54:50;11.20;99.90
5278;DHT22;2662;51.194;6.614;2023-04-24T03:57:18;11.30;99.90
5278;DHT22;2662;51.194;6.614;2023-04-24T03:59:44;11.20;99.90
5278;DHT22;2662;51.194;6.614;2023-04-24T04:02:11;11.20;99.90
5278;DHT22;2662;51.194;6.614;2023-04-24T04:04:38;11.30;99.90
5278;DHT22;2662;51.194;6.614;2023-04-24T04:07:05;11.30;99.90
5278;DHT22;2662;51.194;6.614;2023-04-24T04:09:31;11.20;99.90
5278;DHT22;2662;51.194;6.614;2023-04-24T04:11:59;11.20;99.90
5278;DHT22;2662;51.194;6.614;2023-04-24T04:14:27;11.20;99.90
5278;DHT22;2662;51.194;6.614;2023-04-24T04:16:54;11.20;99.90
5278;DHT22;2662;51.194;6.614;2023-04-24T04:19:21;11.20;99.90
5278;DHT22;2662;51.194;6.614;2023-04-24T04:21:47;11.10;99.90
5278;DHT22;2662;51.194;6.614;2023-04-24T04:24:18;11.10;99.90
5278;DHT22;2662;51.194;6.614;2023-04-24T04:26:46;11.10;99.90
5278;DHT22;2662;51.194;6.614;2023-04-24T04:29:12;11.10;99.90
5278;DHT22;2662;51.194;6.614;2023-04-24T04:31:40;11.10;99.90
5278;DHT22;2662;51.194;6.614;2023-04-24T04:34:07;11.10;99.90
5278;DHT22;2662;51.194;6.614;2023-04-24T04:36:34;11.10;99.90
5278;DHT22;2662;51.194;6.614;2023-04-24T04:39:02;11.10;99.90
5278;DHT22;2662;51.194;6.614;2023-04-24T04:41:29;11.00;99.90
5278;DHT22;2662;51.194;6.614;2023-04-24T04:43:56;10.90;99.90
5278;DHT22;2662;51.194;6.614;2023-04-24T04:46:24;10.80;99.90
5278;DHT22;2662;51.194;6.614;2023-04-24T04:48:52;10.80;99.90
5278;DHT22;2662;51.194;6.614;2023-04-24T04:51:19;10.70;99.90
5278;DHT22;2662;51.194;6.614;2023-04-24T04:53:46;10.70;99.90
5278;DHT22;2662;51.194;6.614;2023-04-24T04:56:13;10.60;99.90
5278;DHT22;2662;51.194;6.614;2023-04-24T04:58:39;10.60;99.90
5278;DHT22;2662;51.194;6.614;2023-04-24T05:01:06;10.60;99.90
5278;DHT22;2662;51.194;6.614;2023-04-24T05:03:33;10.60;99.90
5278;DHT22;2662;51.194;6.614;2023-04-24T05:06:01;10.60;99.90
5278;DHT22;2662;51.194;6.614;2023-04-24T05:08:28;10.70;99.90
5278;DHT22;2662;51.194;6.614;2023-04-24T05:10:55;10.60;99.90
5278;DHT22;2662;51.194;6.614;2023-04-24T05:13:22;10.60;99.90
5278;DHT22;2662;51.194;6.614;2023-04-24T05:15:48;10.50;99.90
5278;DHT22;2662;51.194;6.614;2023-04-24T05:18:15;10.50;99.90
5278;DHT22;2662;51.194;6.614;2023-04-24T05:20:42;10.40;99.90
5278;DHT22;2662;51.194;6.614;2023-04-24T05:23:10;10.40;99.90
5278;DHT22;2662;51.194;6.614;2023-04-24T05:25:37;10.30;99.90
5278;DHT22;2662;51.194;6.614;2023-04-24T05:28:05;10.30;99.90
5278;DHT22;2662;51.194;6.614;2023-04-24T05:30:32;10.20;99.90
5278;DHT22;2662;51.194;6.614;2023-04-24T05:32:59;10.20;99.90
5278;DHT22;2662;51.194;6.614;2023-04-24T05:35:25;10.20;99.90
5278;DHT22;2662;51.194;6.614;2023-04-24T05:37:52;10.30;99.90
5278;DHT22;2662;51.194;6.614;2023-04-24T05:40:20;10.30;99.90
5278;DHT22;2662;51.194;6.614;2023-04-24T05:42:47;10.40;99.90
5278;DHT22;2662;51.194;6.614;2023-04-24T05:45:14;10.40;99.90
5278;DHT22;2662;51.194;6.614;2023-04-24T05:47:42;10.40;99.90
5278;DHT22;2662;51.194;6.614;2023-04-24T05:50:09;10.40;99.90
5278;DHT22;2662;51.194;6.614;2023-04-24T05:52:36;10.40;99.90
5278;DHT22;2662;51.194;6.614;2023-04-24T05:55:03;10.50;99.90
5278;DHT22;2662;51.194;6.614;2023-04-24T05:57:32;10.50;99.90
5278;DHT22;2662;51.194;6.614;2023-04-24T05:59:58;10.40;99.90
5278;DHT22;2662;51.194;6.614;2023-04-24T06:02:25;10.50;99.90
5278;DHT22;2662;51.194;6.614;2023-04-24T06:04:52;10.60;99.90
5278;DHT22;2662;51.194;6.614;2023-04-24T06:07:19;10.60;99.90
5278;DHT22;2662;51.194;6.614;2023-04-24T06:09:46;10.70;99.90
5278;DHT22;2662;51.194;6.614;2023-04-24T06:12:13;10.80;99.90
5278;DHT22;2662;51.194;6.614;2023-04-24T06:14:41;10.80;99.90
5278;DHT22;2662;51.194;6.614;2023-04-24T06:17:08;10.80;99.90
5278;DHT22;2662;51.194;6.614;2023-04-24T06:19:34;10.80;99.90
5278;DHT22;2662;51.194;6.614;2023-04-24T06:22:01;10.70;99.90
5278;DHT22;2662;51.194;6.614;2023-04-24T06:24:28;10.60;99.90
5278;DHT22;2662;51.194;6.614;2023-04-24T06:26:55;10.50;99.90
5278;DHT22;2662;51.194;6.614;2023-04-24T06:29:22;10.40;99.90
5278;DHT22;2662;51.194;6.614;2023-04-24T06:31:50;10.40;99.90
5278;DHT22;2662;51.194;6.614;2023-04-24T06:34:17;10.40;99.90
5278;DHT22;2662;51.194;6.614;2023-04-24T06:36:43;10.30;99.90
5278;DHT22;2662;51.194;6.614;2023-04-24T06:39:10;10.30;99.90
5278;DHT22;2662;51.194;6.614;2023-04-24T06:41:37;10.30;99.90
5278;DHT22;2662;51.194;6.614;2023-04-24T06:44:05;10.20;99.90
5278;DHT22;2662;51.194;6.614;2023-04-24T06:46:32;10.20;99.90
5278;DHT22;2662;51.194;6.614;2023-04-24T06:49:00;10.20;99.90
5278;DHT22;2662;51.194;6.614;2023-04-24T06:51:26;10.20;99.90
5278;DHT22;2662;51.194;6.614;2023-04-24T06:53:54;10.20;99.90
5278;DHT22;2662;51.194;6.614;2023-04-24T06:56:21;10.30;99.90
5278;DHT22;2662;51.194;6.614;2023-04-24T06:58:48;10.20;99.90
5278;DHT22;2662;51.194;6.614;2023-04-24T07:01:15;10.30;99.90
5278;DHT22;2662;51.194;6.614;2023-04-24T07:03:41;10.20;99.90
5278;DHT22;2662;51.194;6.614;2023-04-24T07:06:10;10.10;99.90
5278;DHT22;2662;51.194;6.614;2023-04-24T07:08:38;10.10;99.90
5278;DHT22;2662;51.194;6.614;2023-04-24T07:11:05;10.10;99.90
5278;DHT22;2662;51.194;6.614;2023-04-24T07:13:32;10.10;99.90
5278;DHT22;2662;51.194;6.614;2023-04-24T07:16:00;10.10;99.90
5278;DHT22;2662;51.194;6.614;2023-04-24T07:18:27;10.00;99.90
5278;DHT22;2662;51.194;6.614;2023-04-24T07:20:54;10.00;99.90
5278;DHT22;2662;51.194;6.614;2023-04-24T07:23:22;9.90;99.90
5278;DHT22;2662;51.194;6.614;2023-04-24T07:25:48;9.70;99.90
5278;DHT22;2662;51.194;6.614;2023-04-24T07:28:15;9.70;99.90
5278;DHT22;2662;51.194;6.614;2023-04-24T07:30:43;9.50;99.90
5278;DHT22;2662;51.194;6.614;2023-04-24T07:33:10;9.40;99.90
5278;DHT22;2662;51.194;6.614;2023-04-24T07:35:38;9.20;99.90
5278;DHT22;2662;51.194;6.614;2023-04-24T07:38:05;9.10;99.90
5278;DHT22;2662;51.194;6.614;2023-04-24T07:40:33;9.00;99.90
5278;DHT22;2662;51.194;6.614;2023-04-24T07:43:00;8.90;99.90
5278;DHT22;2662;51.194;6.614;2023-04-24T07:45:26;8.90;99.90
5278;DHT22;2662;51.194;6.614;2023-04-24T07:47:53;8.80;99.90
5278;DHT22;2662;51.194;6.614;2023-04-24T07:50:20;8.80;99.90
5278;DHT22;2662;51.194;6.614;2023-04-24T07:52:47;8.80;99.90
5278;DHT22;2662;51.194;6.614;2023-04-24T07:55:14;8.80;99.90
5278;DHT22;2662;51.194;6.614;2023-04-24T07:57:42;8.80;99.90
5278;DHT22;2662;51.194;6.614;2023-04-24T08:00:10;8.80;99.90
5278;DHT22;2662;51.194;6.614;2023-04-24T08:02:37;8.80;99.90
5278;DHT22;2662;51.194;6.614;2023-04-24T08:05:04;8.80;99.90
5278;DHT22;2662;51.194;6.614;2023-04-24T08:07:31;8.80;99.90
5278;DHT22;2662;51.194;6.614;2023-04-24T08:09:58;8.90;99.90
5278;DHT22;2662;51.194;6.614;2023-04-24T08:12:25;9.00;99.90
5278;DHT22;2662;51.194;6.614;2023-04-24T08:14:53;9.00;99.90
5278;DHT22;2662;51.194;6.614;2023-04-24T08:17:20;9.10;99.90
5278;DHT22;2662;51.194;6.614;2023-04-24T08:19:47;9.10;99.90
5278;DHT22;2662;51.194;6.614;2023-04-24T08:22:14;9.10;99.90
5278;DHT22;2662;51.194;6.614;2023-04-24T08:24:40;9.20;99.90
5278;DHT22;2662;51.194;6.614;2023-04-24T08:27:08;9.20;99.90
5278;DHT22;2662;51.194;6.614;2023-04-24T08:29:35;9.10;99.90
5278;DHT22;2662;51.194;6.614;2023-04-24T08:32:03;9.10;99.90
5278;DHT22;2662;51.194;6.614;2023-04-24T08:34:30;9.10;99.90
5278;DHT22;2662;51.194;6.614;2023-04-24T08:36:57;9.10;99.90
5278;DHT22;2662;51.194;6.614;2023-04-24T08:39:24;9.10;99.90
5278;DHT22;2662;51.194;6.614;2023-04-24T08:41:52;9.10;99.90
5278;DHT22;2662;51.194;6.614;2023-04-24T08:44:20;9.20;99.90
5278;DHT22;2662;51.194;6.614;2023-04-24T08:46:47;9.10;99.90
5278;DHT22;2662;51.194;6.614;2023-04-24T08:49:16;9.00;99.90
5278;DHT22;2662;51.194;6.614;2023-04-24T08:51:42;9.10;99.90
5278;DHT22;2662;51.194;6.614;2023-04-24T08:54:11;9.20;99.90
5278;DHT22;2662;51.194;6.614;2023-04-24T08:56:38;9.30;99.90
5278;DHT22;2662;51.194;6.614;2023-04-24T08:59:06;9.30;99.90
5278;DHT22;2662;51.194;6.614;2023-04-24T09:01:34;9.40;99.90
5278;DHT22;2662;51.194;6.614;2023-04-24T09:04:07;9.40;99.90
5278;DHT22;2662;51.194;6.614;2023-04-24T09:06:39;9.40;99.90
5278;DHT22;2662;51.194;6.614;2023-04-24T09:09:07;9.50;99.90
5278;DHT22;2662;51.194;6.614;2023-04-24T09:11:35;9.60;99.90
5278;DHT22;2662;51.194;6.614;2023-04-24T09:14:03;9.60;99.90
5278;DHT22;2662;51.194;6.614;2023-04-24T09:16:31;9.60;99.90
5278;DHT22;2662;51.194;6.614;2023-04-24T09:18:58;9.50;99.90
5278;DHT22;2662;51.194;6.614;2023-04-24T09:21:31;9.50;99.90
5278;DHT22;2662;51.194;6.614;2023-04-24T09:24:01;9.50;99.90
5278;DHT22;2662;51.194;6.614;2023-04-24T09:26:29;9.50;99.90
5278;DHT22;2662;51.194;6.614;2023-04-24T09:28:59;9.50;99.90
5278;DHT22;2662;51.194;6.614;2023-04-24T09:31:27;9.50;99.90
5278;DHT22;2662;51.194;6.614;2023-04-24T09:33:56;9.70;99.90
5278;DHT22;2662;51.194;6.614;2023-04-24T09:36:30;9.80;99.90
5278;DHT22;2662;51.194;6.614;2023-04-24T09:39:00;9.90;99.90
5278;DHT22;2662;51.194;6.614;2023-04-24T09:41:28;9.90;99.90
5278;DHT22;2662;51.194;6.614;2023-04-24T09:43:55;9.80;99.90
5278;DHT22;2662;51.194;6.614;2023-04-24T09:46:29;9.90;99.90
5278;DHT22;2662;51.194;6.614;2023-04-24T09:48:57;10.00;99.90
5278;DHT22;2662;51.194;6.614;2023-04-24T09:51:33;10.10;99.90
5278;DHT22;2662;51.194;6.614;2023-04-24T09:54:02;10.10;99.90
5278;DHT22;2662;51.194;6.614;2023-04-24T09:56:33;10.20;99.90
5278;DHT22;2662;51.194;6.614;2023-04-24T09:59:05;10.30;99.90
5278;DHT22;2662;51.194;6.614;2023-04-24T10:01:33;10.50;99.90
5278;DHT22;2662;51.194;6.614;2023-04-24T10:04:00;10.60;99.90
5278;DHT22;2662;51.194;6.614;2023-04-24T10:06:32;10.80;99.90
5278;DHT22;2662;51.194;6.614;2023-04-24T10:08:59;10.90;99.90
5278;DHT22;2662;51.194;6.614;2023-04-24T10:11:28;10.70;99.90
5278;DHT22;2662;51.194;6.614;2023-04-24T10:13:55;10.60;99.90
5278;DHT22;2662;51.194;6.614;2023-04-24T10:16:24;10.60;99.90
5278;DHT22;2662;51.194;6.614;2023-04-24T10:18:52;10.90;99.90
5278;DHT22;2662;51.194;6.614;2023-04-24T10:21:19;10.90;99.90
5278;DHT22;2662;51.194;6.614;2023-04-24T10:23:48;11.00;99.90
5278;DHT22;2662;51.194;6.614;2023-04-24T10:26:16;11.00;99.90
5278;DHT22;2662;51.194;6.614;2023-04-24T10:28:46;11.00;99.90
5278;DHT22;2662;51.194;6.614;2023-04-24T10:31:14;10.90;99.90
5278;DHT22;2662;51.194;6.614;2023-04-24T10:33:42;10.80;99.90
5278;DHT22;2662;51.194;6.614;2023-04-24T10:36:10;10.80;99.90
5278;DHT22;2662;51.194;6.614;2023-04-24T10:38:38;10.80;99.90
5278;DHT22;2662;51.194;6.614;2023-04-24T10:41:08;10.90;99.90
5278;DHT22;2662;51.194;6.614;2023-04-24T10:43:39;11.20;99.90
5278;DHT22;2662;51.194;6.614;2023-04-24T10:46:08;11.50;99.90
5278;DHT22;2662;51.194;6.614;2023-04-24T10:48:42;12.00;99.90
5278;DHT22;2662;51.194;6.614;2023-04-24T10:51:11;12.20;99.90
5278;DHT22;2662;51.194;6.614;2023-04-24T10:53:39;12.50;99.90
5278;DHT22;2662;51.194;6.614;2023-04-24T10:56:08;12.30;99.90
5278;DHT22;2662;51.194;6.614;2023-04-24T10:58:37;12.30;99.90
5278;DHT22;2662;51.194;6.614;2023-04-24T11:01:07;12.20;99.90
5278;DHT22;2662;51.194;6.614;2023-04-24T11:03:35;12.20;99.90
5278;DHT22;2662;51.194;6.614;2023-04-24T11:06:03;12.40;99.90
5278;DHT22;2662;51.194;6.614;2023-04-24T11:08:37;12.50;99.90
5278;DHT22;2662;51.194;6.614;2023-04-24T11:11:09;12.50;99.90
5278;DHT22;2662;51.194;6.614;2023-04-24T11:14:01;12.40;99.90
5278;DHT22;2662;51.194;6.614;2023-04-24T11:16:31;12.30;99.90
5278;DHT22;2662;51.194;6.614;2023-04-24T11:19:04;12.00;99.90
5278;DHT22;2662;51.194;6.614;2023-04-24T11:21:31;12.00;99.90
5278;DHT22;2662;51.194;6.614;2023-04-24T11:23:58;12.10;99.90
5278;DHT22;2662;51.194;6.614;2023-04-24T11:26:25;12.30;99.90
5278;DHT22;2662;51.194;6.614;2023-04-24T11:29:06;12.50;99.90
5278;DHT22;2662;51.194;6.614;2023-04-24T11:31:39;12.60;99.90
5278;DHT22;2662;51.194;6.614;2023-04-24T13:35:22;14.40;99.90
5278;DHT22;2662;51.194;6.614;2023-04-24T13:37:48;14.10;99.90
5278;DHT22;2662;51.194;6.614;2023-04-24T13:40:15;14.10;99.90
5278;DHT22;2662;51.194;6.614;2023-04-24T13:42:42;14.00;99.90
5278;DHT22;2662;51.194;6.614;2023-04-24T13:45:10;13.90;99.90
5278;DHT22;2662;51.194;6.614;2023-04-24T13:47:37;13.70;99.90
5278;DHT22;2662;51.194;6.614;2023-04-24T13:50:07;13.70;99.90
5278;DHT22;2662;51.194;6.614;2023-04-24T13:52:35;13.70;99.90
5278;DHT22;2662;51.194;6.614;2023-04-24T13:55:02;13.40;99.90
5278;DHT22;2662;51.194;6.614;2023-04-24T13:57:28;13.20;99.90
5278;DHT22;2662;51.194;6.614;2023-04-24T13:59:56;13.00;99.90
5278;DHT22;2662;51.194;6.614;2023-04-24T14:02:26;13.00;99.90
5278;DHT22;2662;51.194;6.614;2023-04-24T14:04:53;13.30;99.90
5278;DHT22;2662;51.194;6.614;2023-04-24T14:07:20;13.60;99.90
5278;DHT22;2662;51.194;6.614;2023-04-24T14:09:48;13.60;99.90
5278;DHT22;2662;51.194;6.614;2023-04-24T14:12:15;13.70;99.90
5278;DHT22;2662;51.194;6.614;2023-04-24T14:14:45;13.80;99.90
5278;DHT22;2662;51.194;6.614;2023-04-24T14:17:12;14.00;99.90
5278;DHT22;2662;51.194;6.614;2023-04-24T14:19:39;13.90;99.90
5278;DHT22;2662;51.194;6.614;2023-04-24T14:22:05;14.10;99.90
5278;DHT22;2662;51.194;6.614;2023-04-24T14:24:32;14.30;99.90
5278;DHT22;2662;51.194;6.614;2023-04-24T14:27:00;14.20;99.90
5278;DHT22;2662;51.194;6.614;2023-04-24T14:29:27;14.30;99.90
5278;DHT22;2662;51.194;6.614;2023-04-24T14:31:54;14.30;99.90
5278;DHT22;2662;51.194;6.614;2023-04-24T14:34:20;14.50;99.90
5278;DHT22;2662;51.194;6.614;2023-04-24T14:36:47;14.60;99.90
5278;DHT22;2662;51.194;6.614;2023-04-24T14:39:14;14.70;99.90
5278;DHT22;2662;51.194;6.614;2023-04-24T14:41:40;14.50;99.90
5278;DHT22;2662;51.194;6.614;2023-04-24T14:44:08;14.50;99.90
5278;DHT22;2662;51.194;6.614;2023-04-24T14:46:36;14.60;99.90
5278;DHT22;2662;51.194;6.614;2023-04-24T14:49:02;14.80;99.90
5278;DHT22;2662;51.194;6.614;2023-04-24T14:51:29;14.80;99.90
5278;DHT22;2662;51.194;6.614;2023-04-24T14:53:58;15.00;99.90
5278;DHT22;2662;51.194;6.614;2023-04-24T14:56:25;15.10;99.90
5278;DHT22;2662;51.194;6.614;2023-04-24T14:58:51;15.30;99.90
5278;DHT22;2662;51.194;6.614;2023-04-24T15:01:19;15.30;99.90
5278;DHT22;2662;51.194;6.614;2023-04-24T15:03:46;15.10;99.90
5278;DHT22;2662;51.194;6.614;2023-04-24T15:06:13;14.80;99.90
5278;DHT22;2662;51.194;6.614;2023-04-24T15:08:40;14.70;99.90
5278;DHT22;2662;51.194;6.614;2023-04-24T15:11:07;14.60;99.90
5278;DHT22;2662;51.194;6.614;2023-04-24T15:13:34;14.50;99.90
5278;DHT22;2662;51.194;6.614;2023-04-24T15:16:01;14.30;99.90
5278;DHT22;2662;51.194;6.614;2023-04-24T15:18:29;14.20;99.90
5278;DHT22;2662;51.194;6.614;2023-04-24T15:20:56;14.20;99.90
5278;DHT22;2662;51.194;6.614;2023-04-24T15:23:23;14.10;99.90
5278;DHT22;2662;51.194;6.614;2023-04-24T15:25:50;14.00;99.90
5278;DHT22;2662;51.194;6.614;2023-04-24T15:28:16;14.00;99.90
5278;DHT22;2662;51.194;6.614;2023-04-24T15:30:43;14.10;99.90
5278;DHT22;2662;51.194;6.614;2023-04-24T15:33:10;14.10;99.90
5278;DHT22;2662;51.194;6.614;2023-04-24T15:35:38;14.00;99.90
5278;DHT22;2662;51.194;6.614;2023-04-24T15:38:05;13.90;99.90
5278;DHT22;2662;51.194;6.614;2023-04-24T15:40:32;13.90;99.90
5278;DHT22;2662;51.194;6.614;2023-04-24T15:42:59;14.00;99.90
5278;DHT22;2662;51.194;6.614;2023-04-24T15:45:25;13.90;99.90
5278;DHT22;2662;51.194;6.614;2023-04-24T15:47:52;13.90;99.90
5278;DHT22;2662;51.194;6.614;2023-04-24T15:50:19;13.80;99.90
5278;DHT22;2662;51.194;6.614;2023-04-24T15:52:48;13.70;99.90
5278;DHT22;2662;51.194;6.614;2023-04-24T15:55:15;13.80;99.90
5278;DHT22;2662;51.194;6.614;2023-04-24T15:57:42;13.90;99.90
5278;DHT22;2662;51.194;6.614;2023-04-24T16:00:10;13.90;99.90
5278;DHT22;2662;51.194;6.614;2023-04-24T16:02:37;13.80;99.90
5278;DHT22;2662;51.194;6.614;2023-04-24T16:05:04;13.70;99.90
5278;DHT22;2662;51.194;6.614;2023-04-24T16:07:33;13.70;99.90
5278;DHT22;2662;51.194;6.614;2023-04-24T16:10:01;13.90;99.90
5278;DHT22;2662;51.194;6.614;2023-04-24T16:12:27;13.70;99.90
5278;DHT22;2662;51.194;6.614;2023-04-24T16:14:54;13.70;99.90
5278;DHT22;2662;51.194;6.614;2023-04-24T16:17:21;13.60;99.90
5278;DHT22;2662;51.194;6.614;2023-04-24T16:19:47;13.50;99.90
5278;DHT22;2662;51.194;6.614;2023-04-24T16:22:14;13.50;99.90
5278;DHT22;2662;51.194;6.614;2023-04-24T16:24:41;13.40;99.90
5278;DHT22;2662;51.194;6.614;2023-04-24T16:27:10;13.20;99.90
5278;DHT22;2662;51.194;6.614;2023-04-24T16:29:37;13.20;99.90
5278;DHT22;2662;51.194;6.614;2023-04-24T16:32:03;13.10;99.90
5278;DHT22;2662;51.194;6.614;2023-04-24T16:34:30;13.10;99.90
5278;DHT22;2662;51.194;6.614;2023-04-24T16:36:57;13.00;99.90
5278;DHT22;2662;51.194;6.614;2023-04-24T16:39:24;13.10;99.90
5278;DHT22;2662;51.194;6.614;2023-04-24T16:41:51;13.20;99.90
5278;DHT22;2662;51.194;6.614;2023-04-24T16:44:20;13.10;99.90
5278;DHT22;2662;51.194;6.614;2023-04-24T16:46:47;13.10;99.90
5278;DHT22;2662;51.194;6.614;2023-04-24T16:49:14;13.10;99.90
5278;DHT22;2662;51.194;6.614;2023-04-24T16:51:40;13.20;99.90
5278;DHT22;2662;51.194;6.614;2023-04-24T16:54:07;13.20;99.90
5278;DHT22;2662;51.194;6.614;2023-04-24T16:56:34;13.00;99.90
5278;DHT22;2662;51.194;6.614;2023-04-24T16:59:00;13.00;99.90
5278;DHT22;2662;51.194;6.614;2023-04-24T17:01:29;13.00;99.90
5278;DHT22;2662;51.194;6.614;2023-04-24T17:03:55;13.00;99.90
5278;DHT22;2662;51.194;6.614;2023-04-24T17:06:22;13.00;99.90
5278;DHT22;2662;51.194;6.614;2023-04-24T17:08:49;13.00;99.90
5278;DHT22;2662;51.194;6.614;2023-04-24T17:11:16;12.90;99.90
5278;DHT22;2662;51.194;6.614;2023-04-24T17:13:42;12.80;99.90
5278;DHT22;2662;51.194;6.614;2023-04-24T17:16:09;12.70;99.90
5278;DHT22;2662;51.194;6.614;2023-04-24T17:18:37;12.70;99.90
5278;DHT22;2662;51.194;6.614;2023-04-24T17:21:04;12.70;99.90
5278;DHT22;2662;51.194;6.614;2023-04-24T17:23:31;12.60;99.90
5278;DHT22;2662;51.194;6.614;2023-04-24T17:25:57;12.60;99.90
5278;DHT22;2662;51.194;6.614;2023-04-24T17:28:25;12.40;99.90
5278;DHT22;2662;51.194;6.614;2023-04-24T17:30:53;12.30;99.90
5278;DHT22;2662;51.194;6.614;2023-04-24T17:33:22;12.30;99.90
5278;DHT22;2662;51.194;6.614;2023-04-24T17:35:50;12.20;99.90
5278;DHT22;2662;51.194;6.614;2023-04-24T17:38:17;12.20;99.90
5278;DHT22;2662;51.194;6.614;2023-04-24T17:40:44;12.10;99.90
5278;DHT22;2662;51.194;6.614;2023-04-24T17:43:11;12.10;99.90
5278;DHT22;2662;51.194;6.614;2023-04-24T17:45:42;12.10;99.90
5278;DHT22;2662;51.194;6.614;2023-04-24T17:48:09;12.00;99.90
5278;DHT22;2662;51.194;6.614;2023-04-24T17:50:36;11.90;99.90
5278;DHT22;2662;51.194;6.614;2023-04-24T17:53:04;12.00;99.90
5278;DHT22;2662;51.194;6.614;2023-04-24T17:55:31;12.00;99.90
5278;DHT22;2662;51.194;6.614;2023-04-24T17:57:59;12.00;99.90
5278;DHT22;2662;51.194;6.614;2023-04-24T18:00:26;12.00;99.90
5278;DHT22;2662;51.194;6.614;2023-04-24T18:02:52;12.00;99.90
5278;DHT22;2662;51.194;6.614;2023-04-24T18:05:25;12.00;99.90
5278;DHT22;2662;51.194;6.614;2023-04-24T18:07:52;11.90;99.90